createdAt,value
2017-10-28T00:00:59.750Z,0
2017-10-28T00:02:01.298Z,0
2017-10-28T00:03:02.986Z,0
2017-10-28T00:04:04.547Z,0
2017-10-28T00:05:06.172Z,0
2017-10-28T00:06:07.699Z,0
2017-10-28T00:07:10.218Z,0
2017-10-28T00:08:11.726Z,0
2017-10-28T00:09:13.377Z,0
2017-10-28T00:10:14.892Z,0
2017-10-28T00:11:16.491Z,0
2017-10-28T00:12:18.041Z,0
2017-10-28T00:13:19.619Z,0
2017-10-28T00:14:21.117Z,0
2017-10-28T00:15:22.697Z,0
2017-10-28T00:16:24.447Z,0
2017-10-28T00:17:26.096Z,0
2017-10-28T00:18:27.610Z,0
2017-10-28T00:19:29.170Z,0
2017-10-28T00:20:30.710Z,0
2017-10-28T00:21:32.239Z,0
2017-10-28T00:22:33.814Z,0
2017-10-28T00:23:35.419Z,0
2017-10-28T00:24:36.904Z,0
2017-10-28T00:25:38.491Z,0
2017-10-28T00:26:40.034Z,0
2017-10-28T00:27:41.647Z,0
2017-10-28T00:28:43.165Z,0
2017-10-28T00:29:44.780Z,0
2017-10-28T00:30:46.253Z,0
2017-10-28T00:31:47.862Z,0
2017-10-28T00:32:49.389Z,0
2017-10-28T00:33:50.941Z,0
2017-10-28T00:34:52.466Z,0
2017-10-28T00:35:54.037Z,0
2017-10-28T00:36:55.580Z,0
2017-10-28T00:37:57.155Z,0
2017-10-28T00:38:58.661Z,0
2017-10-28T00:40:00.213Z,0
2017-10-28T00:41:01.786Z,0
2017-10-28T00:42:03.469Z,0
2017-10-28T00:43:05.049Z,0
2017-10-28T00:44:06.597Z,0
2017-10-28T00:45:08.141Z,0
2017-10-28T00:46:09.799Z,0
2017-10-28T00:47:11.307Z,0
2017-10-28T00:48:12.922Z,0
2017-10-28T00:49:14.452Z,0
2017-10-28T00:50:16.116Z,0
2017-10-28T00:51:17.663Z,0
2017-10-28T00:52:19.304Z,0
2017-10-28T00:53:20.796Z,0
2017-10-28T00:54:22.424Z,0
2017-10-28T00:55:23.937Z,0
2017-10-28T00:56:25.569Z,0
2017-10-28T00:57:27.049Z,0
2017-10-28T00:58:29.688Z,0
2017-10-28T00:59:31.186Z,0
2017-10-28T01:00:33.788Z,0
2017-10-28T01:01:35.296Z,0
2017-10-28T01:02:41.855Z,0
2017-10-28T01:03:43.392Z,0
2017-10-28T01:04:47.094Z,0
2017-10-28T01:05:48.616Z,0
2017-10-28T01:06:50.318Z,0
2017-10-28T01:07:51.823Z,0
2017-10-28T01:08:53.519Z,0
2017-10-28T01:09:55.012Z,0
2017-10-28T01:10:56.659Z,0
2017-10-28T01:11:58.190Z,0
2017-10-28T01:12:59.878Z,0
2017-10-28T01:14:01.434Z,0
2017-10-28T01:15:03.012Z,0
2017-10-28T01:16:04.639Z,0
2017-10-28T01:17:06.252Z,0
2017-10-28T01:18:07.776Z,0
2017-10-28T01:19:09.398Z,0
2017-10-28T01:20:10.897Z,0
2017-10-28T01:21:12.595Z,0
2017-10-28T01:22:14.116Z,0
2017-10-28T01:23:15.757Z,0
2017-10-28T01:24:17.297Z,0
2017-10-28T01:25:18.968Z,0
2017-10-28T01:26:20.554Z,0
2017-10-28T01:27:22.225Z,0
2017-10-28T01:28:23.774Z,0
2017-10-28T01:29:25.328Z,0
2017-10-28T01:30:26.860Z,0
2017-10-28T01:31:28.468Z,0
2017-10-28T01:32:30.180Z,0
2017-10-28T01:33:31.709Z,0
2017-10-28T01:34:33.317Z,0
2017-10-28T01:35:34.896Z,0
2017-10-28T01:36:36.462Z,0
2017-10-28T01:37:38.134Z,0
2017-10-28T01:38:39.635Z,0
2017-10-28T01:39:41.303Z,0
2017-10-28T01:40:42.789Z,0
2017-10-28T01:41:44.359Z,0
2017-10-28T01:42:45.956Z,0
2017-10-28T01:43:47.513Z,0
2017-10-28T01:44:49.075Z,0
2017-10-28T01:45:52.673Z,0
2017-10-28T01:46:54.228Z,0
2017-10-28T01:48:02.798Z,0
2017-10-28T01:49:04.420Z,0
2017-10-28T01:50:06.042Z,0
2017-10-28T01:51:07.572Z,0
2017-10-28T01:52:19.792Z,0
2017-10-28T01:53:21.277Z,0
2017-10-28T01:54:27.660Z,0
2017-10-28T01:55:29.231Z,0
2017-10-28T01:56:30.835Z,0
2017-10-28T01:57:32.357Z,0
2017-10-28T01:58:33.931Z,0
2017-10-28T01:59:35.489Z,0
2017-10-28T02:00:37.089Z,0
2017-10-28T02:01:38.627Z,0
2017-10-28T02:02:41.343Z,0
2017-10-28T02:03:42.855Z,0
2017-10-28T02:04:44.597Z,0
2017-10-28T02:05:46.100Z,0
2017-10-28T02:06:48.801Z,0
2017-10-28T02:07:50.395Z,0
2017-10-28T02:08:52.178Z,0
2017-10-28T02:09:53.794Z,0
2017-10-28T02:10:55.375Z,0
2017-10-28T02:11:56.930Z,0
2017-10-28T02:12:58.542Z,0
2017-10-28T02:14:00.070Z,0
2017-10-28T02:15:01.680Z,0
2017-10-28T02:16:03.249Z,0
2017-10-28T02:17:05.020Z,0
2017-10-28T02:18:06.657Z,0
2017-10-28T02:19:08.394Z,0
2017-10-28T02:20:09.950Z,0
2017-10-28T02:21:11.591Z,0
2017-10-28T02:22:13.482Z,0
2017-10-28T02:23:17.139Z,0
2017-10-28T02:24:18.667Z,0
2017-10-28T02:25:20.328Z,0
2017-10-28T02:26:21.790Z,0
2017-10-28T02:27:23.456Z,0
2017-10-28T02:28:24.949Z,0
2017-10-28T02:29:26.450Z,0
2017-10-28T02:30:28.195Z,0
2017-10-28T02:31:29.668Z,0
2017-10-28T02:32:31.264Z,0
2017-10-28T02:33:32.816Z,0
2017-10-28T02:34:34.602Z,0
2017-10-28T02:35:36.066Z,0
2017-10-28T02:36:37.751Z,0
2017-10-28T02:37:39.328Z,0
2017-10-28T02:38:40.999Z,0
2017-10-28T02:39:42.521Z,0
2017-10-28T02:40:44.084Z,0
2017-10-28T02:41:45.614Z,0
2017-10-28T02:42:47.284Z,0
2017-10-28T02:43:48.804Z,0
2017-10-28T02:44:50.482Z,0
2017-10-28T02:45:51.990Z,0
2017-10-28T02:46:53.673Z,0
2017-10-28T02:47:55.219Z,0
2017-10-28T02:48:56.912Z,0
2017-10-28T02:49:58.408Z,0
2017-10-28T02:51:00.050Z,0
2017-10-28T02:52:01.557Z,0
2017-10-28T02:53:03.223Z,0
2017-10-28T02:54:04.773Z,0
2017-10-28T02:55:06.310Z,0
2017-10-28T02:56:07.858Z,0
2017-10-28T02:57:09.539Z,0
2017-10-28T02:58:11.065Z,0
2017-10-28T02:59:13.049Z,0
2017-10-28T03:00:14.556Z,0
2017-10-28T03:01:16.260Z,0
2017-10-28T03:02:17.746Z,0
2017-10-28T03:03:19.456Z,0
2017-10-28T03:04:21.002Z,0
2017-10-28T03:05:22.657Z,0
2017-10-28T03:06:24.166Z,0
2017-10-28T03:07:25.843Z,0
2017-10-28T03:08:27.362Z,0
2017-10-28T03:09:30.023Z,0
2017-10-28T03:10:31.525Z,0
2017-10-28T03:11:33.305Z,0
2017-10-28T03:12:34.848Z,0
2017-10-28T03:13:36.518Z,0
2017-10-28T03:14:38.044Z,0
2017-10-28T03:15:39.751Z,0
2017-10-28T03:16:41.261Z,0
2017-10-28T03:17:42.972Z,0
2017-10-28T03:18:44.449Z,0
2017-10-28T03:19:46.115Z,0
2017-10-28T03:20:47.603Z,0
2017-10-28T03:21:49.288Z,0
2017-10-28T03:22:50.784Z,0
2017-10-28T03:23:52.510Z,0
2017-10-28T03:24:53.950Z,0
2017-10-28T03:25:55.621Z,0
2017-10-28T03:26:57.138Z,0
2017-10-28T03:27:58.853Z,0
2017-10-28T03:29:00.436Z,0
2017-10-28T03:30:02.160Z,0
2017-10-28T03:31:03.737Z,0
2017-10-28T03:32:05.435Z,0
2017-10-28T03:33:07.001Z,0
2017-10-28T03:34:08.687Z,0
2017-10-28T03:35:10.231Z,0
2017-10-28T03:36:11.735Z,0
2017-10-28T03:37:13.417Z,0
2017-10-28T03:38:14.903Z,0
2017-10-28T03:39:16.617Z,0
2017-10-28T03:40:18.177Z,0
2017-10-28T03:41:19.850Z,0
2017-10-28T03:42:21.366Z,0
2017-10-28T03:43:23.028Z,0
2017-10-28T03:44:24.560Z,0
2017-10-28T03:45:26.080Z,0
2017-10-28T03:46:27.640Z,0
2017-10-28T03:47:29.178Z,0
2017-10-28T03:48:31.910Z,0
2017-10-28T03:49:33.417Z,0
2017-10-28T03:50:35.265Z,0
2017-10-28T03:51:36.745Z,0
2017-10-28T03:52:38.406Z,0
2017-10-28T03:53:39.961Z,0
2017-10-28T03:54:41.649Z,0
2017-10-28T03:55:43.161Z,0
2017-10-28T03:56:44.783Z,0
2017-10-28T03:57:46.298Z,0
2017-10-28T03:58:49.815Z,0
2017-10-28T03:59:51.313Z,0
2017-10-28T04:00:54.949Z,0
2017-10-28T04:01:56.419Z,0
2017-10-28T04:02:58.051Z,0
2017-10-28T04:03:59.594Z,0
2017-10-28T04:05:02.270Z,0
2017-10-28T04:06:03.781Z,0
2017-10-28T04:07:05.512Z,0
2017-10-28T04:08:07.126Z,0
2017-10-28T04:09:08.827Z,0
2017-10-28T04:10:10.372Z,0
2017-10-28T04:11:12.014Z,0
2017-10-28T04:12:13.534Z,0
2017-10-28T04:13:15.236Z,0
2017-10-28T04:14:16.756Z,0
2017-10-28T04:15:18.410Z,0
2017-10-28T04:16:19.910Z,0
2017-10-28T04:17:21.629Z,0
2017-10-28T04:18:23.134Z,0
2017-10-28T04:19:24.797Z,0
2017-10-28T04:20:26.309Z,0
2017-10-28T04:21:27.944Z,0
2017-10-28T04:22:29.462Z,0
2017-10-28T04:23:31.145Z,0
2017-10-28T04:24:32.700Z,0
2017-10-28T04:25:34.426Z,0
2017-10-28T04:26:35.948Z,0
2017-10-28T04:27:37.661Z,0
2017-10-28T04:28:39.156Z,0
2017-10-28T04:29:40.845Z,0
2017-10-28T04:30:42.349Z,0
2017-10-28T04:31:44.025Z,0
2017-10-28T04:32:45.527Z,0
2017-10-28T04:33:47.202Z,0
2017-10-28T04:34:48.703Z,0
2017-10-28T04:35:50.417Z,0
2017-10-28T04:36:51.915Z,0
2017-10-28T04:37:53.588Z,0
2017-10-28T04:38:55.110Z,0
2017-10-28T04:39:56.762Z,0
2017-10-28T04:40:58.293Z,0
2017-10-28T04:41:59.952Z,0
2017-10-28T04:43:01.451Z,0
2017-10-28T04:44:03.222Z,0
2017-10-28T04:45:05.159Z,0
2017-10-28T04:46:06.796Z,0
2017-10-28T04:47:08.295Z,0
2017-10-28T04:48:10.004Z,0
2017-10-28T04:49:11.553Z,0
2017-10-28T04:50:13.548Z,0
2017-10-28T04:51:15.045Z,0
2017-10-28T04:52:16.699Z,0
2017-10-28T04:53:18.302Z,0
2017-10-28T04:54:20.061Z,0
2017-10-28T04:55:21.558Z,0
2017-10-28T04:56:23.287Z,0
2017-10-28T04:57:24.801Z,0
2017-10-28T04:58:26.453Z,0
2017-10-28T04:59:27.931Z,0
2017-10-28T05:00:29.712Z,0
2017-10-28T05:01:31.211Z,0
2017-10-28T05:02:33.053Z,0
2017-10-28T05:03:34.571Z,0
2017-10-28T05:04:36.221Z,0
2017-10-28T05:05:37.703Z,0
2017-10-28T05:06:39.420Z,0
2017-10-28T05:07:41.091Z,0
2017-10-28T05:08:42.792Z,0
2017-10-28T05:09:44.339Z,0
2017-10-28T05:10:45.988Z,0
2017-10-28T05:11:47.475Z,0
2017-10-28T05:12:49.197Z,0
2017-10-28T05:13:50.700Z,0
2017-10-28T05:14:52.403Z,0
2017-10-28T05:15:53.926Z,0
2017-10-28T05:16:55.563Z,0
2017-10-28T05:17:57.076Z,0
2017-10-28T05:18:58.732Z,0
2017-10-28T05:20:00.258Z,0
2017-10-28T05:21:01.921Z,0
2017-10-28T05:22:03.468Z,0
2017-10-28T05:23:05.001Z,0
2017-10-28T05:24:06.668Z,0
2017-10-28T05:25:08.201Z,0
2017-10-28T05:26:09.826Z,0
2017-10-28T05:27:11.611Z,0
2017-10-28T05:28:13.269Z,0
2017-10-28T05:29:14.760Z,0
2017-10-28T05:30:16.481Z,0
2017-10-28T05:31:17.938Z,0
2017-10-28T05:32:19.640Z,0
2017-10-28T05:33:21.165Z,0
2017-10-28T05:34:22.792Z,0
2017-10-28T05:35:24.316Z,0
2017-10-28T05:36:26.022Z,0
2017-10-28T05:37:27.494Z,0
2017-10-28T05:38:29.190Z,4
2017-10-28T05:39:30.710Z,4
2017-10-28T05:40:32.269Z,4
2017-10-28T05:41:33.854Z,4
2017-10-28T05:42:35.589Z,8
2017-10-28T05:43:37.095Z,8
2017-10-28T05:44:38.785Z,12
2017-10-28T05:45:40.387Z,12
2017-10-28T05:46:42.142Z,12
2017-10-28T05:47:43.705Z,16
2017-10-28T05:48:45.341Z,20
2017-10-28T05:49:46.833Z,24
2017-10-28T05:50:48.640Z,28
2017-10-28T05:51:50.076Z,36
2017-10-28T05:52:52.091Z,44
2017-10-28T05:53:53.605Z,52
2017-10-28T05:54:55.165Z,64
2017-10-28T05:55:56.705Z,76
2017-10-28T05:56:58.384Z,88
2017-10-28T05:57:59.881Z,104
2017-10-28T05:59:01.540Z,116
2017-10-28T06:00:03.110Z,128
2017-10-28T06:01:04.799Z,148
2017-10-28T06:02:06.408Z,168
2017-10-28T06:03:07.912Z,192
2017-10-28T06:04:09.411Z,216
2017-10-28T06:05:11.030Z,240
2017-10-28T06:06:12.537Z,252
2017-10-28T06:07:14.198Z,268
2017-10-28T06:08:15.712Z,312
2017-10-28T06:09:17.366Z,364
2017-10-28T06:10:18.871Z,404
2017-10-28T06:11:20.617Z,444
2017-10-28T06:12:22.126Z,484
2017-10-28T06:13:23.793Z,532
2017-10-28T06:14:25.334Z,568
2017-10-28T06:15:27.996Z,604
2017-10-28T06:16:29.545Z,640
2017-10-28T06:17:32.238Z,688
2017-10-28T06:18:33.750Z,752
2017-10-28T06:19:35.406Z,804
2017-10-28T06:20:36.930Z,868
2017-10-28T06:21:38.589Z,928
2017-10-28T06:22:40.084Z,976
2017-10-28T06:23:41.768Z,1024
2017-10-28T06:24:43.404Z,1096
2017-10-28T06:25:45.080Z,1176
2017-10-28T06:26:46.639Z,1268
2017-10-28T06:27:48.369Z,1360
2017-10-28T06:28:50.065Z,1476
2017-10-28T06:29:51.779Z,1608
2017-10-28T06:30:53.385Z,1740
2017-10-28T06:31:54.979Z,1880
2017-10-28T06:32:56.478Z,2032
2017-10-28T06:33:58.190Z,2184
2017-10-28T06:34:59.772Z,2312
2017-10-28T06:36:01.436Z,2448
2017-10-28T06:37:03.030Z,2608
2017-10-28T06:38:05.688Z,2780
2017-10-28T06:39:07.335Z,2928
2017-10-28T06:40:08.954Z,3032
2017-10-28T06:41:10.478Z,3140
2017-10-28T06:42:12.171Z,3240
2017-10-28T06:43:13.740Z,3320
2017-10-28T06:44:15.356Z,3408
2017-10-28T06:45:16.870Z,3568
2017-10-28T06:46:18.587Z,3708
2017-10-28T06:47:20.113Z,3800
2017-10-28T06:48:21.640Z,3832
2017-10-28T06:49:23.145Z,3828
2017-10-28T06:50:24.874Z,3832
2017-10-28T06:51:26.401Z,3904
2017-10-28T06:52:28.289Z,3972
2017-10-28T06:53:29.738Z,4096
2017-10-28T06:54:31.509Z,4200
2017-10-28T06:55:33.183Z,4136
2017-10-28T06:56:35.828Z,4056
2017-10-28T06:57:37.407Z,4044
2017-10-28T06:58:45.867Z,4000
2017-10-28T06:59:47.519Z,4028
2017-10-28T07:00:51.242Z,4276
2017-10-28T07:01:52.851Z,4532
2017-10-28T07:02:54.483Z,4428
2017-10-28T07:03:56.075Z,4520
2017-10-28T07:04:57.773Z,4856
2017-10-28T07:05:59.349Z,4784
2017-10-28T07:07:00.952Z,4816
2017-10-28T07:08:02.639Z,4800
2017-10-28T07:09:04.488Z,5092
2017-10-28T07:10:06.265Z,5448
2017-10-28T07:11:10.198Z,5804
2017-10-28T07:12:11.681Z,5952
2017-10-28T07:13:13.348Z,5876
2017-10-28T07:14:14.923Z,5904
2017-10-28T07:15:16.592Z,6296
2017-10-28T07:16:18.138Z,6796
2017-10-28T07:17:20.945Z,7380
2017-10-28T07:18:22.642Z,8208
2017-10-28T07:19:24.318Z,9128
2017-10-28T07:20:25.896Z,10340
2017-10-28T07:21:27.553Z,9912
2017-10-28T07:22:29.069Z,9368
2017-10-28T07:23:31.726Z,9092
2017-10-28T07:24:33.436Z,9728
2017-10-28T07:25:35.334Z,9996
2017-10-28T07:26:36.951Z,10116
2017-10-28T07:27:38.524Z,10376
2017-10-28T07:28:40.009Z,10824
2017-10-28T07:29:41.534Z,11092
2017-10-28T07:30:43.038Z,11124
2017-10-28T07:31:44.692Z,11400
2017-10-28T07:32:46.364Z,11864
2017-10-28T07:33:48.027Z,12528
2017-10-28T07:34:49.502Z,13272
2017-10-28T07:35:51.948Z,14408
2017-10-28T07:36:53.548Z,15660
2017-10-28T07:37:56.360Z,15484
2017-10-28T07:38:57.986Z,15464
2017-10-28T07:39:59.819Z,15024
2017-10-28T07:41:01.452Z,14232
2017-10-28T07:42:03.225Z,13804
2017-10-28T07:43:04.815Z,13072
2017-10-28T07:44:06.574Z,12348
2017-10-28T07:45:08.103Z,11252
2017-10-28T07:46:09.937Z,10736
2017-10-28T07:47:11.630Z,9520
2017-10-28T07:48:13.327Z,9288
2017-10-28T07:49:14.939Z,9628
2017-10-28T07:50:16.667Z,9244
2017-10-28T07:51:18.256Z,9336
2017-10-28T07:52:19.906Z,9328
2017-10-28T07:53:21.848Z,8448
2017-10-28T07:54:23.533Z,7144
2017-10-28T07:55:25.217Z,8440
2017-10-28T07:56:26.821Z,9456
2017-10-28T07:57:28.441Z,9512
2017-10-28T07:58:29.956Z,8712
2017-10-28T07:59:31.607Z,8356
2017-10-28T08:00:33.255Z,8376
2017-10-28T08:01:34.942Z,8476
2017-10-28T08:02:36.537Z,8500
2017-10-28T08:03:38.110Z,8516
2017-10-28T08:04:39.683Z,8636
2017-10-28T08:05:41.335Z,8768
2017-10-28T08:06:42.872Z,9116
2017-10-28T08:07:44.427Z,9576
2017-10-28T08:08:45.932Z,9308
2017-10-28T08:09:47.463Z,10392
2017-10-28T08:10:49.070Z,12120
2017-10-28T08:11:50.757Z,13008
2017-10-28T08:12:52.305Z,13652
2017-10-28T08:13:53.845Z,13980
2017-10-28T08:14:55.891Z,14372
2017-10-28T08:15:57.996Z,15176
2017-10-28T08:16:59.571Z,16088
2017-10-28T08:18:01.220Z,16724
2017-10-28T08:19:03.700Z,17824
2017-10-28T08:20:06.484Z,17824
2017-10-28T08:21:08.088Z,18016
2017-10-28T08:22:09.679Z,18112
2017-10-28T08:23:11.285Z,17984
2017-10-28T08:24:13.627Z,17760
2017-10-28T08:25:15.200Z,17260
2017-10-28T08:26:17.097Z,17792
2017-10-28T08:27:18.640Z,17276
2017-10-28T08:28:20.161Z,17600
2017-10-28T08:29:21.735Z,17312
2017-10-28T08:30:23.455Z,17132
2017-10-28T08:31:25.556Z,17172
2017-10-28T08:32:27.341Z,17196
2017-10-28T08:33:29.137Z,17192
2017-10-28T08:34:31.004Z,17168
2017-10-28T08:35:33.114Z,17292
2017-10-28T08:36:35.333Z,17260
2017-10-28T08:37:37.114Z,17224
2017-10-28T08:38:38.796Z,17028
2017-10-28T08:39:40.564Z,16932
2017-10-28T08:40:42.110Z,16936
2017-10-28T08:41:43.856Z,17052
2017-10-28T08:42:45.757Z,17136
2017-10-28T08:43:47.411Z,17028
2017-10-28T08:44:48.990Z,16944
2017-10-28T08:45:50.711Z,16772
2017-10-28T08:46:52.267Z,16704
2017-10-28T08:47:54.050Z,16568
2017-10-28T08:48:55.879Z,16660
2017-10-28T08:49:58.760Z,17856
2017-10-28T08:51:00.339Z,19328
2017-10-28T08:52:03.143Z,19040
2017-10-28T08:53:05.702Z,19840
2017-10-28T08:54:07.401Z,21344
2017-10-28T08:55:08.945Z,21280
2017-10-28T08:56:11.875Z,22112
2017-10-28T08:57:13.470Z,22272
2017-10-28T08:58:15.392Z,23168
2017-10-28T08:59:17.141Z,22432
2017-10-28T09:00:18.727Z,22208
2017-10-28T09:01:20.496Z,23488
2017-10-28T09:02:22.392Z,24416
2017-10-28T09:03:24.867Z,25376
2017-10-28T09:04:26.461Z,23424
2017-10-28T09:05:27.980Z,22496
2017-10-28T09:06:29.623Z,20704
2017-10-28T09:07:31.215Z,19872
2017-10-28T09:08:32.782Z,19936
2017-10-28T09:09:34.434Z,20768
2017-10-28T09:10:36.001Z,21792
2017-10-28T09:11:37.508Z,20768
2017-10-28T09:12:39.108Z,21024
2017-10-28T09:13:40.640Z,21216
2017-10-28T09:14:42.301Z,22304
2017-10-28T09:15:43.819Z,24000
2017-10-28T09:16:45.441Z,23616
2017-10-28T09:17:46.980Z,21632
2017-10-28T09:18:48.606Z,21952
2017-10-28T09:19:50.148Z,21824
2017-10-28T09:20:51.724Z,21856
2017-10-28T09:21:53.257Z,21952
2017-10-28T09:22:54.870Z,21920
2017-10-28T09:23:56.629Z,22752
2017-10-28T09:24:58.283Z,20736
2017-10-28T09:25:59.850Z,20064
2017-10-28T09:27:01.377Z,21120
2017-10-28T09:28:02.907Z,23136
2017-10-28T09:29:04.575Z,21824
2017-10-28T09:30:06.221Z,19200
2017-10-28T09:31:07.854Z,20288
2017-10-28T09:32:09.373Z,21312
2017-10-28T09:33:10.977Z,20736
2017-10-28T09:34:12.538Z,19008
2017-10-28T09:35:14.183Z,18624
2017-10-28T09:36:15.730Z,16568
2017-10-28T09:37:17.490Z,14308
2017-10-28T09:38:18.952Z,10748
2017-10-28T09:39:20.672Z,9564
2017-10-28T09:40:22.361Z,7360
2017-10-28T09:41:23.977Z,6868
2017-10-28T09:42:25.553Z,6700
2017-10-28T09:43:27.231Z,5724
2017-10-28T09:44:28.776Z,6104
2017-10-28T09:45:30.419Z,6428
2017-10-28T09:46:31.944Z,6780
2017-10-28T09:47:33.735Z,7420
2017-10-28T09:48:35.373Z,9188
2017-10-28T09:49:37.126Z,9512
2017-10-28T09:50:38.813Z,9484
2017-10-28T09:51:40.462Z,7568
2017-10-28T09:52:42.035Z,7268
2017-10-28T09:53:43.744Z,8836
2017-10-28T09:54:45.356Z,11420
2017-10-28T09:55:47.027Z,13496
2017-10-28T09:56:48.559Z,13456
2017-10-28T09:57:50.305Z,13940
2017-10-28T09:58:51.840Z,13296
2017-10-28T09:59:53.485Z,15416
2017-10-28T10:00:55.039Z,12656
2017-10-28T10:01:56.727Z,13568
2017-10-28T10:02:58.354Z,13148
2017-10-28T10:03:59.960Z,14196
2017-10-28T10:05:01.599Z,14256
2017-10-28T10:06:03.248Z,9820
2017-10-28T10:07:04.993Z,7656
2017-10-28T10:08:06.696Z,8020
2017-10-28T10:09:08.329Z,9108
2017-10-28T10:10:10.028Z,8232
2017-10-28T10:11:11.690Z,9372
2017-10-28T10:12:13.272Z,10280
2017-10-28T10:13:14.852Z,10204
2017-10-28T10:14:16.511Z,8980
2017-10-28T10:15:18.080Z,7704
2017-10-28T10:16:19.652Z,7356
2017-10-28T10:17:21.201Z,8080
2017-10-28T10:18:22.824Z,9464
2017-10-28T10:19:24.349Z,11148
2017-10-28T10:20:25.975Z,12388
2017-10-28T10:21:27.578Z,13184
2017-10-28T10:22:30.248Z,14980
2017-10-28T10:23:31.936Z,17984
2017-10-28T10:24:33.623Z,19648
2017-10-28T10:25:35.331Z,18976
2017-10-28T10:26:38.604Z,18304
2017-10-28T10:27:40.126Z,18944
2017-10-28T10:28:41.806Z,18432
2017-10-28T10:29:43.533Z,19648
2017-10-28T10:30:45.409Z,21472
2017-10-28T10:31:47.053Z,22496
2017-10-28T10:32:48.733Z,21920
2017-10-28T10:33:50.497Z,21792
2017-10-28T10:34:52.109Z,19808
2017-10-28T10:35:53.741Z,17016
2017-10-28T10:36:55.407Z,14532
2017-10-28T10:37:57.595Z,12656
2017-10-28T10:38:59.345Z,11860
2017-10-28T10:40:01.832Z,11456
2017-10-28T10:41:03.501Z,11504
2017-10-28T10:42:05.279Z,11248
2017-10-28T10:43:07.076Z,10160
2017-10-28T10:44:08.788Z,9524
2017-10-28T10:45:10.657Z,9940
2017-10-28T10:46:12.216Z,10360
2017-10-28T10:47:13.867Z,12140
2017-10-28T10:48:15.427Z,13804
2017-10-28T10:49:18.142Z,14956
2017-10-28T10:50:19.691Z,16300
2017-10-28T10:51:21.530Z,17480
2017-10-28T10:52:23.091Z,17760
2017-10-28T10:53:24.920Z,18624
2017-10-28T10:54:26.617Z,19488
2017-10-28T10:55:28.222Z,20416
2017-10-28T10:56:29.911Z,18304
2017-10-28T10:57:31.478Z,19200
2017-10-28T10:58:33.271Z,19872
2017-10-28T10:59:34.928Z,21760
2017-10-28T11:00:36.512Z,28544
2017-10-28T11:01:38.236Z,39424
2017-10-28T11:02:40.159Z,36128
2017-10-28T11:03:41.985Z,37632
2017-10-28T11:04:43.559Z,38112
2017-10-28T11:05:45.183Z,26240
2017-10-28T11:06:46.790Z,25088
2017-10-28T11:07:48.532Z,24928
2017-10-28T11:08:50.146Z,23872
2017-10-28T11:09:51.949Z,25856
2017-10-28T11:10:53.484Z,35648
2017-10-28T11:11:54.998Z,25536
2017-10-28T11:12:56.617Z,23584
2017-10-28T11:13:58.220Z,21728
2017-10-28T11:15:00.177Z,21056
2017-10-28T11:16:02.024Z,20192
2017-10-28T11:17:03.737Z,20128
2017-10-28T11:18:05.320Z,21792
2017-10-28T11:19:06.941Z,22720
2017-10-28T11:20:08.492Z,22688
2017-10-28T11:21:09.993Z,24064
2017-10-28T11:22:11.674Z,24160
2017-10-28T11:23:13.445Z,24992
2017-10-28T11:24:15.102Z,24160
2017-10-28T11:25:16.642Z,22208
2017-10-28T11:26:18.269Z,22016
2017-10-28T11:27:19.806Z,22656
2017-10-28T11:28:22.598Z,20672
2017-10-28T11:29:24.161Z,21728
2017-10-28T11:30:27.308Z,22688
2017-10-28T11:31:28.831Z,24000
2017-10-28T11:32:30.667Z,24000
2017-10-28T11:33:32.411Z,23200
2017-10-28T11:34:34.043Z,21792
2017-10-28T11:35:35.643Z,20800
2017-10-28T11:36:37.268Z,19872
2017-10-28T11:37:38.821Z,19776
2017-10-28T11:38:40.616Z,19840
2017-10-28T11:39:42.154Z,19616
2017-10-28T11:40:43.896Z,19392
2017-10-28T11:41:45.361Z,18016
2017-10-28T11:42:46.958Z,19456
2017-10-28T11:43:48.455Z,20416
2017-10-28T11:44:50.186Z,18752
2017-10-28T11:45:51.766Z,16076
2017-10-28T11:46:53.429Z,14572
2017-10-28T11:47:55.118Z,13124
2017-10-28T11:48:56.952Z,11856
2017-10-28T11:49:58.489Z,11612
2017-10-28T11:51:00.150Z,10940
2017-10-28T11:52:01.994Z,11104
2017-10-28T11:53:03.958Z,10656
2017-10-28T11:54:05.629Z,9580
2017-10-28T11:55:07.455Z,9960
2017-10-28T11:56:09.001Z,12068
2017-10-28T11:57:10.654Z,12044
2017-10-28T11:58:12.432Z,12592
2017-10-28T11:59:14.112Z,13636
2017-10-28T12:00:15.935Z,16060
2017-10-28T12:01:17.662Z,18784
2017-10-28T12:02:19.257Z,21792
2017-10-28T12:03:20.916Z,22336
2017-10-28T12:04:22.591Z,24544
2017-10-28T12:05:24.267Z,24160
2017-10-28T12:06:26.001Z,19616
2017-10-28T12:07:27.685Z,20320
2017-10-28T12:08:29.715Z,16884
2017-10-28T12:09:31.300Z,16848
2017-10-28T12:10:32.976Z,18560
2017-10-28T12:11:34.724Z,24480
2017-10-28T12:12:36.251Z,25056
2017-10-28T12:13:38.399Z,34336
2017-10-28T12:14:40.283Z,22752
2017-10-28T12:15:42.226Z,21984
2017-10-28T12:16:43.834Z,19072
2017-10-28T12:17:45.477Z,22240
2017-10-28T12:18:47.103Z,23648
2017-10-28T12:19:48.734Z,21024
2017-10-28T12:20:50.493Z,29024
2017-10-28T12:21:52.118Z,24960
2017-10-28T12:22:53.714Z,21856
2017-10-28T12:23:55.334Z,20960
2017-10-28T12:24:56.809Z,20512
2017-10-28T12:25:58.412Z,19776
2017-10-28T12:27:00.031Z,16952
2017-10-28T12:28:01.673Z,16576
2017-10-28T12:29:03.542Z,18432
2017-10-28T12:30:05.308Z,21440
2017-10-28T12:31:06.892Z,21760
2017-10-28T12:32:08.611Z,23680
2017-10-28T12:33:10.306Z,24288
2017-10-28T12:34:11.989Z,23456
2017-10-28T12:35:13.707Z,23584
2017-10-28T12:36:15.454Z,22656
2017-10-28T12:37:17.126Z,21760
2017-10-28T12:38:18.611Z,19680
2017-10-28T12:39:20.158Z,18016
2017-10-28T12:40:22.046Z,17408
2017-10-28T12:41:23.783Z,16236
2017-10-28T12:42:25.697Z,15228
2017-10-28T12:43:27.446Z,14496
2017-10-28T12:44:29.113Z,13940
2017-10-28T12:45:30.706Z,13284
2017-10-28T12:46:33.538Z,13168
2017-10-28T12:47:35.129Z,13552
2017-10-28T12:48:36.700Z,13876
2017-10-28T12:49:38.340Z,14404
2017-10-28T12:50:39.919Z,14456
2017-10-28T12:51:41.425Z,14068
2017-10-28T12:52:43.110Z,14292
2017-10-28T12:53:44.756Z,14748
2017-10-28T12:54:46.353Z,14928
2017-10-28T12:55:47.858Z,15636
2017-10-28T12:56:49.529Z,16180
2017-10-28T12:57:51.054Z,16796
2017-10-28T12:58:54.744Z,18208
2017-10-28T12:59:56.410Z,19040
2017-10-28T13:00:58.115Z,19040
2017-10-28T13:01:59.741Z,18400
2017-10-28T13:03:01.396Z,17008
2017-10-28T13:04:03.071Z,16236
2017-10-28T13:05:04.832Z,15760
2017-10-28T13:06:06.665Z,15168
2017-10-28T13:07:08.353Z,14916
2017-10-28T13:08:10.079Z,15196
2017-10-28T13:09:11.675Z,15292
2017-10-28T13:10:13.201Z,15180
2017-10-28T13:11:15.904Z,14788
2017-10-28T13:12:17.612Z,14712
2017-10-28T13:13:19.892Z,14680
2017-10-28T13:14:21.497Z,14672
2017-10-28T13:15:23.059Z,14492
2017-10-28T13:16:24.692Z,14184
2017-10-28T13:17:26.291Z,14560
2017-10-28T13:18:27.871Z,14532
2017-10-28T13:19:29.587Z,14480
2017-10-28T13:20:31.075Z,14608
2017-10-28T13:21:32.738Z,14540
2017-10-28T13:22:34.330Z,14312
2017-10-28T13:23:36.547Z,13836
2017-10-28T13:24:38.179Z,13196
2017-10-28T13:25:39.955Z,12792
2017-10-28T13:26:41.636Z,12768
2017-10-28T13:27:43.414Z,12876
2017-10-28T13:28:45.172Z,12880
2017-10-28T13:29:47.338Z,13136
2017-10-28T13:30:48.867Z,13456
2017-10-28T13:31:50.579Z,13796
2017-10-28T13:32:52.145Z,14156
2017-10-28T13:33:53.671Z,14564
2017-10-28T13:34:55.318Z,14980
2017-10-28T13:35:56.898Z,15208
2017-10-28T13:36:58.801Z,15344
2017-10-28T13:38:00.494Z,15396
2017-10-28T13:39:02.435Z,15400
2017-10-28T13:40:04.266Z,15432
2017-10-28T13:41:06.044Z,15480
2017-10-28T13:42:07.701Z,15476
2017-10-28T13:43:09.364Z,15100
2017-10-28T13:44:10.914Z,14524
2017-10-28T13:45:13.650Z,14580
2017-10-28T13:46:15.229Z,14320
2017-10-28T13:47:18.373Z,14640
2017-10-28T13:48:20.006Z,15648
2017-10-28T13:49:21.730Z,16568
2017-10-28T13:50:23.507Z,17052
2017-10-28T13:51:25.452Z,17404
2017-10-28T13:52:27.112Z,17348
2017-10-28T13:53:28.889Z,17824
2017-10-28T13:54:30.399Z,18016
2017-10-28T13:55:32.584Z,18240
2017-10-28T13:56:34.298Z,18272
2017-10-28T13:57:36.591Z,18400
2017-10-28T13:58:38.220Z,18560
2017-10-28T13:59:39.949Z,17728
2017-10-28T14:00:42.071Z,16812
2017-10-28T14:01:44.411Z,16660
2017-10-28T14:02:46.095Z,16716
2017-10-28T14:03:48.183Z,16932
2017-10-28T14:04:49.804Z,17136
2017-10-28T14:05:51.776Z,17428
2017-10-28T14:06:53.668Z,17824